createdAt,value
2018-07-22T00:00:20.552Z,0.00
2018-07-22T00:01:20.507Z,0.00
2018-07-22T00:02:20.489Z,0.00
2018-07-22T00:03:20.411Z,0.00
2018-07-22T00:04:20.366Z,0.00
2018-07-22T00:05:20.317Z,0.00
2018-07-22T00:06:20.273Z,0.00
2018-07-22T00:07:20.230Z,0.00
2018-07-22T00:08:20.208Z,0.00
2018-07-22T00:09:20.136Z,0.00
2018-07-22T00:10:20.090Z,0.00
2018-07-22T00:11:20.050Z,0.00
2018-07-22T00:12:20.003Z,0.00
2018-07-22T00:13:19.985Z,0.00
2018-07-22T00:14:19.908Z,0.00
2018-07-22T00:15:19.870Z,0.00
2018-07-22T00:16:19.820Z,0.00
2018-07-22T00:17:19.774Z,0.00
2018-07-22T00:18:19.748Z,0.00
2018-07-22T00:19:19.680Z,0.00
2018-07-22T00:20:19.634Z,0.00
2018-07-22T00:21:19.588Z,0.00
2018-07-22T00:22:19.542Z,0.00
2018-07-22T00:23:19.529Z,0.00
2018-07-22T00:24:19.457Z,0.00
2018-07-22T00:25:19.415Z,0.00
2018-07-22T00:26:19.359Z,0.00
2018-07-22T00:27:19.319Z,0.00
2018-07-22T00:28:19.299Z,0.00
2018-07-22T00:29:19.269Z,0.00
2018-07-22T00:30:19.179Z,0.00
2018-07-22T00:31:19.135Z,0.00
2018-07-22T00:32:19.090Z,0.00
2018-07-22T00:33:19.068Z,0.00
2018-07-22T00:34:18.997Z,0.00
2018-07-22T00:35:18.957Z,0.00
2018-07-22T00:36:18.905Z,0.00
2018-07-22T00:37:18.860Z,0.00
2018-07-22T00:38:18.839Z,0.00
2018-07-22T00:39:18.770Z,0.00
2018-07-22T00:40:18.724Z,0.00
2018-07-22T00:41:18.681Z,0.00
2018-07-22T00:42:18.632Z,0.00
2018-07-22T00:43:18.614Z,0.00
2018-07-22T00:44:18.546Z,0.00
2018-07-22T00:45:18.497Z,0.00
2018-07-22T00:46:18.452Z,0.00
2018-07-22T00:47:18.408Z,0.00
2018-07-22T00:48:18.384Z,0.00
2018-07-22T00:49:18.312Z,0.00
2018-07-22T00:50:18.269Z,0.00
2018-07-22T00:51:18.227Z,0.00
2018-07-22T00:52:18.178Z,0.00
2018-07-22T00:53:18.157Z,0.00
2018-07-22T00:54:18.083Z,0.00
2018-07-22T00:55:18.045Z,0.00
2018-07-22T00:56:17.994Z,0.00
2018-07-22T00:57:17.949Z,0.00
2018-07-22T00:58:17.926Z,0.00
2018-07-22T00:59:17.857Z,0.00
2018-07-22T01:00:17.870Z,0.00
2018-07-22T01:01:17.768Z,0.00
2018-07-22T01:02:17.721Z,0.00
2018-07-22T01:03:17.701Z,0.00
2018-07-22T01:04:17.631Z,0.00
2018-07-22T01:05:17.587Z,0.00
2018-07-22T01:06:17.541Z,0.00
2018-07-22T01:07:17.497Z,0.00
2018-07-22T01:08:17.472Z,0.00
2018-07-22T01:09:17.402Z,0.00
2018-07-22T01:10:17.357Z,0.00
2018-07-22T01:11:17.313Z,0.00
2018-07-22T01:12:17.269Z,0.00
2018-07-22T01:13:17.244Z,0.00
2018-07-22T01:14:17.180Z,0.00
2018-07-22T01:15:17.132Z,0.00
2018-07-22T01:16:17.084Z,0.00
2018-07-22T01:17:17.037Z,0.00
2018-07-22T01:18:17.013Z,0.00
2018-07-22T01:19:16.946Z,0.00
2018-07-22T01:20:16.900Z,0.00
2018-07-22T01:21:16.852Z,0.00
2018-07-22T01:22:16.808Z,0.00
2018-07-22T01:23:16.845Z,0.00
2018-07-22T01:24:16.717Z,0.00
2018-07-22T01:25:16.676Z,0.00
2018-07-22T01:26:16.628Z,0.00
2018-07-22T01:27:16.581Z,0.00
2018-07-22T01:28:16.539Z,0.00
2018-07-22T01:29:16.515Z,0.00
2018-07-22T01:30:16.447Z,0.00
2018-07-22T01:31:16.399Z,0.00
2018-07-22T01:32:16.355Z,0.00
2018-07-22T01:33:16.310Z,0.00
2018-07-22T01:34:16.287Z,0.00
2018-07-22T01:35:16.219Z,0.00
2018-07-22T01:36:16.177Z,0.00
2018-07-22T01:37:16.125Z,0.00
2018-07-22T01:38:16.080Z,0.00
2018-07-22T01:39:16.059Z,0.00
2018-07-22T01:40:15.991Z,0.00
2018-07-22T01:41:15.946Z,0.00
2018-07-22T01:42:15.896Z,0.00
2018-07-22T01:43:15.898Z,0.00
2018-07-22T01:44:15.832Z,0.00
2018-07-22T01:45:15.766Z,0.00
2018-07-22T01:46:15.718Z,0.00
2018-07-22T01:47:15.672Z,0.00
2018-07-22T01:48:15.628Z,0.00
2018-07-22T01:49:15.606Z,0.00
2018-07-22T01:50:15.535Z,0.00
2018-07-22T01:51:15.488Z,0.00
2018-07-22T01:52:15.442Z,0.00
2018-07-22T01:53:15.399Z,0.00
2018-07-22T01:54:15.372Z,0.00
2018-07-22T01:55:15.308Z,0.00
2018-07-22T01:56:15.258Z,0.00
2018-07-22T01:57:15.215Z,0.00
2018-07-22T01:58:15.169Z,0.00
2018-07-22T01:59:15.144Z,0.00
2018-07-22T02:00:15.079Z,0.00
2018-07-22T02:01:15.032Z,0.00
2018-07-22T02:02:14.985Z,0.00
2018-07-22T02:03:14.940Z,0.00
2018-07-22T02:04:14.922Z,0.00
2018-07-22T02:05:14.850Z,0.00
2018-07-22T02:06:14.810Z,0.00
2018-07-22T02:07:14.759Z,0.00
2018-07-22T02:08:14.717Z,0.00
2018-07-22T02:09:14.693Z,0.00
2018-07-22T02:10:14.626Z,0.00
2018-07-22T02:11:14.582Z,0.00
2018-07-22T02:12:14.531Z,0.00
2018-07-22T02:13:14.487Z,0.00
2018-07-22T02:14:14.465Z,0.00
2018-07-22T02:15:14.394Z,0.00
2018-07-22T02:16:14.350Z,0.00
2018-07-22T02:17:14.304Z,0.00
2018-07-22T02:18:14.258Z,0.00
2018-07-22T02:19:14.239Z,0.00
2018-07-22T02:20:14.171Z,0.00
2018-07-22T02:21:14.125Z,0.00
2018-07-22T02:22:14.073Z,0.00
2018-07-22T02:23:14.031Z,0.00
2018-07-22T02:24:14.008Z,0.00
2018-07-22T02:25:13.937Z,0.00
2018-07-22T02:26:13.897Z,0.00
2018-07-22T02:27:13.847Z,0.00
2018-07-22T02:28:13.799Z,0.00
2018-07-22T02:29:13.782Z,0.00
2018-07-22T02:30:13.712Z,0.00
2018-07-22T02:31:13.671Z,0.00
2018-07-22T02:32:13.618Z,0.00
2018-07-22T02:33:13.574Z,0.00
2018-07-22T02:34:13.552Z,0.00
2018-07-22T02:35:13.481Z,0.00
2018-07-22T02:36:13.434Z,0.00
2018-07-22T02:37:13.395Z,0.00
2018-07-22T02:38:13.345Z,0.00
2018-07-22T02:39:13.321Z,0.00
2018-07-22T02:40:13.254Z,0.00
2018-07-22T02:41:13.206Z,0.00
2018-07-22T02:42:13.162Z,0.00
2018-07-22T02:43:13.119Z,0.00
2018-07-22T02:44:13.095Z,0.00
2018-07-22T02:45:13.027Z,0.00
2018-07-22T02:46:12.980Z,0.00
2018-07-22T02:47:12.935Z,0.00
2018-07-22T02:48:12.889Z,0.00
2018-07-22T02:49:12.868Z,0.00
2018-07-22T02:50:12.797Z,0.00
2018-07-22T02:51:12.755Z,0.00
2018-07-22T02:52:12.710Z,0.00
2018-07-22T02:53:12.662Z,0.00
2018-07-22T02:54:12.661Z,0.00
2018-07-22T02:55:12.589Z,0.00
2018-07-22T02:56:12.522Z,0.00
2018-07-22T02:57:12.474Z,0.00
2018-07-22T02:58:12.434Z,0.00
2018-07-22T02:59:12.388Z,0.00
2018-07-22T03:00:12.362Z,0.00
2018-07-22T03:01:12.301Z,0.00
2018-07-22T03:02:12.247Z,0.00
2018-07-22T03:03:12.250Z,4.00
2018-07-22T03:04:12.155Z,4.00
2018-07-22T03:05:12.133Z,0.00
2018-07-22T03:06:12.064Z,0.00
2018-07-22T03:07:12.024Z,4.00
2018-07-22T03:08:11.975Z,4.00
2018-07-22T03:09:11.929Z,0.00
2018-07-22T03:10:11.907Z,4.00
2018-07-22T03:11:11.839Z,8.00
2018-07-22T03:12:11.794Z,4.00
2018-07-22T03:13:11.744Z,8.00
2018-07-22T03:14:11.700Z,8.00
2018-07-22T03:15:11.677Z,8.00
2018-07-22T03:16:11.609Z,8.00
2018-07-22T03:17:11.559Z,12.00
2018-07-22T03:18:11.518Z,12.00
2018-07-22T03:19:11.469Z,12.00
2018-07-22T03:20:11.445Z,12.00
2018-07-22T03:21:11.380Z,12.00
2018-07-22T03:22:11.334Z,20.00
2018-07-22T03:23:11.289Z,20.00
2018-07-22T03:24:11.243Z,20.00
2018-07-22T03:25:11.220Z,24.00
2018-07-22T03:26:11.152Z,24.00
2018-07-22T03:27:11.102Z,24.00
2018-07-22T03:28:11.056Z,28.00
2018-07-22T03:29:11.013Z,28.00
2018-07-22T03:30:10.988Z,32.00
2018-07-22T03:31:10.921Z,32.00
2018-07-22T03:32:10.877Z,36.00
2018-07-22T03:33:10.827Z,40.00
2018-07-22T03:34:10.782Z,44.00
2018-07-22T03:35:10.760Z,48.00
2018-07-22T03:36:10.693Z,52.00
2018-07-22T03:37:10.643Z,56.00
2018-07-22T03:38:10.603Z,64.00
2018-07-22T03:39:10.556Z,68.00
2018-07-22T03:40:10.530Z,76.00
2018-07-22T03:41:10.462Z,76.00
2018-07-22T03:42:10.418Z,84.00
2018-07-22T03:43:10.372Z,92.00
2018-07-22T03:44:10.326Z,96.00
2018-07-22T03:45:10.302Z,104.00
2018-07-22T03:46:10.236Z,108.00
2018-07-22T03:47:10.191Z,116.00
2018-07-22T03:48:10.141Z,124.00
2018-07-22T03:49:10.100Z,132.00
2018-07-22T03:50:10.073Z,140.00
2018-07-22T03:51:10.004Z,148.00
2018-07-22T03:52:09.961Z,156.00
2018-07-22T03:53:09.915Z,164.00
2018-07-22T03:54:09.871Z,176.00
2018-07-22T03:55:09.844Z,180.00
2018-07-22T03:56:09.775Z,188.00
2018-07-22T03:57:09.727Z,200.00
2018-07-22T03:58:09.691Z,204.00
2018-07-22T03:59:09.638Z,216.00
2018-07-22T04:00:09.620Z,224.00
2018-07-22T04:01:09.545Z,232.00
2018-07-22T04:02:09.502Z,236.00
2018-07-22T04:03:09.453Z,240.00
2018-07-22T04:04:09.407Z,252.00
2018-07-22T04:05:09.386Z,256.00
2018-07-22T04:06:09.320Z,268.00
2018-07-22T04:07:09.272Z,276.00
2018-07-22T04:08:09.229Z,284.00
2018-07-22T04:09:09.181Z,292.00
2018-07-22T04:10:09.156Z,296.00
2018-07-22T04:11:09.088Z,304.00
2018-07-22T04:12:09.040Z,308.00
2018-07-22T04:13:08.996Z,304.00
2018-07-22T04:14:08.947Z,300.00
2018-07-22T04:15:08.938Z,296.00
2018-07-22T04:16:08.858Z,292.00
2018-07-22T04:17:08.809Z,284.00
2018-07-22T04:18:08.764Z,272.00
2018-07-22T04:19:08.718Z,264.00
2018-07-22T04:20:08.706Z,256.00
2018-07-22T04:21:08.629Z,248.00
2018-07-22T04:22:08.580Z,240.00
2018-07-22T04:23:08.535Z,236.00
2018-07-22T04:24:08.488Z,232.00
2018-07-22T04:25:08.443Z,228.00
2018-07-22T04:26:08.423Z,232.00
2018-07-22T04:27:08.350Z,236.00
2018-07-22T04:28:08.304Z,244.00
2018-07-22T04:29:08.267Z,248.00
2018-07-22T04:30:08.216Z,252.00
2018-07-22T04:31:08.193Z,252.00
2018-07-22T04:32:08.126Z,248.00
2018-07-22T04:33:08.078Z,248.00
2018-07-22T04:34:08.028Z,240.00
2018-07-22T04:35:07.986Z,236.00
2018-07-22T04:36:07.964Z,240.00
2018-07-22T04:37:07.890Z,240.00
2018-07-22T04:38:07.848Z,240.00
2018-07-22T04:39:07.800Z,240.00
2018-07-22T04:40:07.761Z,248.00
2018-07-22T04:41:07.742Z,252.00
2018-07-22T04:42:07.663Z,260.00
2018-07-22T04:43:07.674Z,268.00
2018-07-22T04:44:07.565Z,276.00
2018-07-22T04:45:07.524Z,288.00
2018-07-22T04:46:07.498Z,304.00
2018-07-22T04:47:07.435Z,312.00
2018-07-22T04:48:07.386Z,324.00
2018-07-22T04:49:07.339Z,336.00
2018-07-22T04:50:07.298Z,348.00
2018-07-22T04:51:07.274Z,352.00
2018-07-22T04:52:07.205Z,360.00
2018-07-22T04:53:07.154Z,364.00
2018-07-22T04:54:07.121Z,364.00
2018-07-22T04:55:07.074Z,368.00
2018-07-22T04:56:07.040Z,376.00
2018-07-22T04:57:06.970Z,392.00
2018-07-22T04:58:06.924Z,408.00
2018-07-22T04:59:06.882Z,436.00
2018-07-22T05:00:06.836Z,480.00
2018-07-22T05:01:06.811Z,520.00
2018-07-22T05:02:06.741Z,544.00
2018-07-22T05:03:06.698Z,564.00
2018-07-22T05:04:06.650Z,580.00
2018-07-22T05:05:06.601Z,588.00
2018-07-22T05:06:06.587Z,592.00
2018-07-22T05:07:06.513Z,600.00
2018-07-22T05:08:06.465Z,596.00
2018-07-22T05:09:06.419Z,588.00
2018-07-22T05:10:06.375Z,584.00
2018-07-22T05:11:06.352Z,580.00
2018-07-22T05:12:06.282Z,580.00
2018-07-22T05:13:06.237Z,584.00
2018-07-22T05:14:06.186Z,596.00
2018-07-22T05:15:06.143Z,616.00
2018-07-22T05:16:06.123Z,644.00
2018-07-22T05:17:06.050Z,660.00
2018-07-22T05:18:06.005Z,692.00
2018-07-22T05:19:05.958Z,736.00
2018-07-22T05:20:05.912Z,800.00
2018-07-22T05:21:05.888Z,820.00
2018-07-22T05:22:05.825Z,844.00
2018-07-22T05:23:05.774Z,876.00
2018-07-22T05:24:05.729Z,920.00
2018-07-22T05:25:05.686Z,968.00
2018-07-22T05:26:05.661Z,1036.00
2018-07-22T05:27:05.591Z,1108.00
2018-07-22T05:28:05.544Z,1184.00
2018-07-22T05:29:05.500Z,1252.00
2018-07-22T05:30:05.451Z,1296.00
2018-07-22T05:31:05.428Z,1336.00
2018-07-22T05:32:05.362Z,1372.00
2018-07-22T05:33:05.317Z,1420.00
2018-07-22T05:34:05.271Z,1496.00
2018-07-22T05:35:05.220Z,1552.00
2018-07-22T05:36:05.232Z,1600.00
2018-07-22T05:37:05.129Z,1660.00
2018-07-22T05:38:05.083Z,1724.00
2018-07-22T05:39:05.036Z,1784.00
2018-07-22T05:40:04.993Z,1848.00
2018-07-22T05:41:04.975Z,1916.00
2018-07-22T05:42:04.931Z,1964.00
2018-07-22T05:43:04.855Z,1988.00
2018-07-22T05:44:04.812Z,2012.00
2018-07-22T05:45:04.762Z,2048.00
2018-07-22T05:46:04.742Z,2088.00
2018-07-22T05:47:04.673Z,2156.00
2018-07-22T05:48:04.627Z,2204.00
2018-07-22T05:49:04.584Z,2232.00
2018-07-22T05:50:04.536Z,2256.00
2018-07-22T05:51:04.513Z,2280.00
2018-07-22T05:52:04.442Z,2324.00
2018-07-22T05:53:04.395Z,2388.00
2018-07-22T05:54:04.417Z,2440.00
2018-07-22T05:55:04.306Z,2544.00
2018-07-22T05:56:04.306Z,2664.00
2018-07-22T05:57:04.207Z,2760.00
2018-07-22T05:58:04.165Z,2856.00
2018-07-22T05:59:04.121Z,2960.00
2018-07-22T06:00:04.077Z,3192.00
2018-07-22T06:01:04.033Z,3380.00
2018-07-22T06:02:04.010Z,3496.00
2018-07-22T06:03:03.968Z,3512.00
2018-07-22T06:04:03.896Z,3508.00
2018-07-22T06:05:03.847Z,3288.00
2018-07-22T06:06:03.801Z,3528.00
2018-07-22T06:07:03.778Z,3420.00
2018-07-22T06:08:03.708Z,3464.00
2018-07-22T06:09:03.664Z,3280.00
2018-07-22T06:10:03.616Z,3592.00
2018-07-22T06:11:03.580Z,3732.00
2018-07-22T06:12:03.557Z,3804.00
2018-07-22T06:13:03.479Z,3832.00
2018-07-22T06:14:03.435Z,3852.00
2018-07-22T06:15:03.391Z,3832.00
2018-07-22T06:16:03.350Z,3736.00
2018-07-22T06:17:03.323Z,3768.00
2018-07-22T06:18:03.254Z,3744.00
2018-07-22T06:19:03.212Z,3712.00
2018-07-22T06:20:03.166Z,3828.00
2018-07-22T06:21:03.122Z,3836.00
2018-07-22T06:22:03.100Z,3628.00
2018-07-22T06:23:03.033Z,4060.00
2018-07-22T06:24:02.988Z,3736.00
2018-07-22T06:25:02.947Z,3548.00
2018-07-22T06:26:02.896Z,3296.00
2018-07-22T06:27:02.880Z,3540.00
2018-07-22T06:28:02.803Z,3724.00
2018-07-22T06:29:02.762Z,3716.00
2018-07-22T06:30:02.717Z,4172.00
2018-07-22T06:31:02.670Z,3948.00
2018-07-22T06:32:02.651Z,4212.00
2018-07-22T06:33:02.575Z,3764.00
2018-07-22T06:34:02.533Z,3644.00
2018-07-22T06:35:02.492Z,4016.00
2018-07-22T06:36:02.446Z,4184.00
2018-07-22T06:37:02.418Z,4544.00
2018-07-22T06:38:02.350Z,4500.00
2018-07-22T06:39:02.313Z,4384.00
2018-07-22T06:40:02.264Z,4732.00
2018-07-22T06:41:02.276Z,4556.00
2018-07-22T06:42:02.213Z,4676.00
2018-07-22T06:43:02.130Z,4036.00
2018-07-22T06:44:02.083Z,4280.00
2018-07-22T06:45:02.038Z,4640.00
2018-07-22T06:46:02.038Z,4528.00
2018-07-22T06:47:01.975Z,4656.00
2018-07-22T06:48:01.904Z,4724.00
2018-07-22T06:49:01.860Z,4608.00
2018-07-22T06:50:01.818Z,4528.00
2018-07-22T06:51:01.770Z,4856.00
2018-07-22T06:52:01.750Z,4704.00
2018-07-22T06:53:01.682Z,4640.00
2018-07-22T06:54:01.638Z,4808.00
2018-07-22T06:55:01.592Z,4720.00
2018-07-22T06:56:01.547Z,4368.00
2018-07-22T06:57:01.527Z,4280.00
2018-07-22T06:58:01.458Z,4008.00
2018-07-22T06:59:01.413Z,4496.00
2018-07-22T07:00:01.372Z,4536.00
2018-07-22T07:01:01.413Z,4608.00
2018-07-22T07:02:01.305Z,4864.00
2018-07-22T07:03:01.234Z,4752.00
2018-07-22T07:04:01.199Z,4704.00
2018-07-22T07:05:01.190Z,4664.00
2018-07-22T07:06:01.103Z,4920.00
2018-07-22T07:07:01.080Z,4424.00
2018-07-22T07:08:01.017Z,4716.00
2018-07-22T07:09:00.969Z,4676.00
2018-07-22T07:10:00.921Z,4748.00
2018-07-22T07:11:00.950Z,4924.00
2018-07-22T07:12:00.863Z,4992.00
2018-07-22T07:13:00.796Z,5136.00
2018-07-22T07:14:00.751Z,5252.00
2018-07-22T07:15:00.707Z,4964.00
2018-07-22T07:16:00.657Z,5056.00
2018-07-22T07:17:00.638Z,4832.00
2018-07-22T07:18:00.569Z,4624.00
2018-07-22T07:19:00.527Z,5292.00
2018-07-22T07:20:00.484Z,5776.00
2018-07-22T07:21:00.440Z,5944.00
2018-07-22T07:22:00.424Z,5764.00
2018-07-22T07:23:00.351Z,6600.00
2018-07-22T07:24:00.307Z,6140.00
2018-07-22T07:25:00.268Z,5924.00
2018-07-22T07:26:00.220Z,5000.00
2018-07-22T07:27:00.177Z,4960.00
2018-07-22T07:28:00.156Z,5076.00
2018-07-22T07:29:00.089Z,5356.00
2018-07-22T07:30:00.065Z,5356.00
2018-07-22T07:31:00.006Z,5228.00
2018-07-22T07:31:59.960Z,5240.00
2018-07-22T07:32:59.945Z,5660.00
2018-07-22T07:33:59.873Z,5004.00
2018-07-22T07:34:59.837Z,5016.00
2018-07-22T07:35:59.786Z,5376.00
2018-07-22T07:36:59.746Z,4708.00
2018-07-22T07:37:59.723Z,4868.00
2018-07-22T07:38:59.658Z,5552.00
2018-07-22T07:39:59.611Z,5556.00
2018-07-22T07:40:59.563Z,5596.00
2018-07-22T07:41:59.523Z,5548.00
2018-07-22T07:42:59.504Z,5080.00
2018-07-22T07:43:59.438Z,4652.00
2018-07-22T07:44:59.398Z,4696.00
2018-07-22T07:45:59.352Z,4880.00
2018-07-22T07:46:59.312Z,4812.00
2018-07-22T07:47:59.290Z,4952.00
2018-07-22T07:48:59.223Z,4952.00
2018-07-22T07:49:59.183Z,5420.00
2018-07-22T07:50:59.133Z,5336.00
2018-07-22T07:51:59.085Z,5116.00
2018-07-22T07:52:59.076Z,4872.00
2018-07-22T07:53:59.002Z,5608.00
2018-07-22T07:54:58.961Z,6508.00
2018-07-22T07:55:58.920Z,6644.00
2018-07-22T07:56:58.880Z,6484.00
2018-07-22T07:57:58.854Z,5604.00
2018-07-22T07:58:58.785Z,5236.00
2018-07-22T07:59:58.745Z,5388.00
2018-07-22T08:00:58.700Z,5560.00
2018-07-22T08:01:58.658Z,5300.00
2018-07-22T08:02:58.636Z,5448.00
2018-07-22T08:03:58.568Z,5752.00
2018-07-22T08:04:58.526Z,5948.00
2018-07-22T08:05:58.482Z,5348.00
2018-07-22T08:06:58.438Z,5260.00
2018-07-22T08:07:58.420Z,5116.00
2018-07-22T08:08:58.359Z,5028.00
2018-07-22T08:09:58.319Z,5084.00
2018-07-22T08:10:58.268Z,5016.00
2018-07-22T08:11:58.221Z,5036.00
2018-07-22T08:12:58.205Z,4968.00
2018-07-22T08:13:58.134Z,4928.00
2018-07-22T08:14:58.092Z,4932.00
2018-07-22T08:15:58.048Z,5052.00
2018-07-22T08:16:58.018Z,5148.00
2018-07-22T08:17:57.990Z,5208.00
2018-07-22T08:18:57.918Z,5152.00
2018-07-22T08:19:57.886Z,5136.00
2018-07-22T08:20:57.831Z,5136.00
2018-07-22T08:21:57.879Z,5216.00
2018-07-22T08:22:57.773Z,5256.00
2018-07-22T08:23:57.707Z,5452.00
2018-07-22T08:24:57.666Z,5512.00
2018-07-22T08:25:57.621Z,5680.00
2018-07-22T08:26:57.578Z,5768.00
2018-07-22T08:27:57.557Z,5768.00
2018-07-22T08:28:57.488Z,5676.00
2018-07-22T08:29:57.443Z,5400.00
2018-07-22T08:30:57.402Z,5420.00
2018-07-22T08:31:57.361Z,5052.00
2018-07-22T08:32:57.334Z,4876.00
2018-07-22T08:33:57.273Z,4808.00
2018-07-22T08:34:57.228Z,4716.00
2018-07-22T08:35:57.188Z,4784.00
2018-07-22T08:36:57.141Z,4928.00
2018-07-22T08:37:57.120Z,4776.00
2018-07-22T08:38:57.060Z,5000.00
2018-07-22T08:39:57.011Z,5180.00
2018-07-22T08:40:56.970Z,5388.00
2018-07-22T08:41:56.930Z,5528.00
2018-07-22T08:42:56.907Z,5440.00
2018-07-22T08:43:56.847Z,5336.00
2018-07-22T08:44:56.799Z,5224.00
2018-07-22T08:45:56.754Z,5124.00
2018-07-22T08:46:56.717Z,4964.00
2018-07-22T08:47:56.694Z,4820.00
2018-07-22T08:48:56.630Z,4764.00
2018-07-22T08:49:56.588Z,4720.00
2018-07-22T08:50:56.543Z,4656.00
2018-07-22T08:51:56.506Z,4520.00
2018-07-22T08:52:56.486Z,4496.00
2018-07-22T08:53:56.417Z,4656.00
2018-07-22T08:54:56.379Z,4728.00
2018-07-22T08:55:56.332Z,4732.00
2018-07-22T08:56:56.290Z,4748.00
2018-07-22T08:57:56.247Z,4772.00
2018-07-22T08:58:56.236Z,4800.00
2018-07-22T08:59:56.162Z,4888.00
2018-07-22T09:00:56.117Z,5044.00
2018-07-22T09:01:56.075Z,5004.00
2018-07-22T09:02:56.037Z,4952.00
2018-07-22T09:03:56.013Z,4860.00
2018-07-22T09:04:55.951Z,4836.00
2018-07-22T09:05:55.906Z,4716.00
2018-07-22T09:06:55.865Z,4724.00
2018-07-22T09:07:55.817Z,4776.00
2018-07-22T09:08:55.799Z,4728.00
2018-07-22T09:09:55.733Z,4700.00
2018-07-22T09:10:55.688Z,4700.00
2018-07-22T09:11:55.652Z,4732.00
2018-07-22T09:12:55.612Z,4636.00
2018-07-22T09:13:55.590Z,4504.00
2018-07-22T09:14:55.524Z,4664.00
2018-07-22T09:15:55.486Z,4664.00
2018-07-22T09:16:55.434Z,4740.00
2018-07-22T09:17:55.415Z,4788.00
2018-07-22T09:18:55.372Z,4792.00
2018-07-22T09:19:55.307Z,4816.00
2018-07-22T09:20:55.261Z,4720.00
2018-07-22T09:21:55.224Z,4668.00
2018-07-22T09:22:55.182Z,4928.00
2018-07-22T09:23:55.165Z,4840.00
2018-07-22T09:24:55.097Z,4696.00
2018-07-22T09:25:55.052Z,4676.00
2018-07-22T09:26:55.070Z,4764.00
2018-07-22T09:27:54.971Z,4740.00
2018-07-22T09:28:54.956Z,4748.00
2018-07-22T09:29:54.883Z,4800.00
2018-07-22T09:30:54.841Z,4796.00
2018-07-22T09:31:54.800Z,4800.00
2018-07-22T09:32:54.757Z,4944.00
2018-07-22T09:33:54.735Z,4956.00
2018-07-22T09:34:54.672Z,4880.00
2018-07-22T09:35:54.670Z,4824.00
2018-07-22T09:36:54.586Z,4804.00
2018-07-22T09:37:54.552Z,4848.00
2018-07-22T09:38:54.521Z,4876.00
2018-07-22T09:39:54.464Z,4860.00
2018-07-22T09:40:54.416Z,4888.00
2018-07-22T09:41:54.402Z,4920.00
2018-07-22T09:42:54.340Z,4924.00
2018-07-22T09:43:54.313Z,4884.00
2018-07-22T09:44:54.252Z,4832.00
2018-07-22T09:45:54.208Z,4872.00
2018-07-22T09:46:54.165Z,4896.00
2018-07-22T09:47:54.120Z,4908.00
2018-07-22T09:48:54.103Z,4924.00
2018-07-22T09:49:54.039Z,4932.00
2018-07-22T09:50:53.991Z,4872.00
2018-07-22T09:51:53.952Z,4840.00
2018-07-22T09:52:53.911Z,4848.00
2018-07-22T09:53:53.897Z,4840.00
2018-07-22T09:54:53.829Z,4896.00
2018-07-22T09:55:53.787Z,4872.00
2018-07-22T09:56:53.744Z,4852.00
2018-07-22T09:57:53.703Z,4864.00
2018-07-22T09:58:53.685Z,4744.00
2018-07-22T09:59:53.625Z,4492.00
2018-07-22T10:00:53.574Z,4512.00
2018-07-22T10:01:53.532Z,4800.00
2018-07-22T10:02:53.489Z,4768.00
2018-07-22T10:03:53.472Z,4552.00
2018-07-22T10:04:53.517Z,4404.00
2018-07-22T10:05:53.363Z,4320.00
2018-07-22T10:06:53.322Z,4508.00
2018-07-22T10:07:53.288Z,4564.00
2018-07-22T10:08:53.266Z,4740.00
2018-07-22T10:09:53.202Z,4796.00
2018-07-22T10:10:53.160Z,4796.00
2018-07-22T10:11:53.125Z,4760.00
2018-07-22T10:12:53.077Z,4764.00
2018-07-22T10:13:53.052Z,4720.00
2018-07-22T10:14:52.992Z,4712.00
2018-07-22T10:15:52.954Z,4740.00
2018-07-22T10:16:52.906Z,4800.00
2018-07-22T10:17:52.864Z,4800.00
2018-07-22T10:18:52.849Z,4800.00
2018-07-22T10:19:52.785Z,4792.00
2018-07-22T10:20:52.742Z,4812.00
2018-07-22T10:21:52.697Z,4788.00
2018-07-22T10:22:52.654Z,4800.00
2018-07-22T10:23:52.646Z,4836.00
2018-07-22T10:24:52.575Z,4868.00
2018-07-22T10:25:52.534Z,4932.00
2018-07-22T10:26:52.488Z,4996.00
2018-07-22T10:27:52.457Z,4996.00
2018-07-22T10:28:52.413Z,4968.00
2018-07-22T10:29:52.389Z,4944.00
2018-07-22T10:30:52.328Z,4944.00
2018-07-22T10:31:52.282Z,4980.00
2018-07-22T10:32:52.239Z,5016.00
2018-07-22T10:33:52.199Z,5096.00
2018-07-22T10:34:52.181Z,5140.00
2018-07-22T10:35:52.171Z,5148.00
2018-07-22T10:36:52.077Z,5188.00
2018-07-22T10:37:52.031Z,5208.00
2018-07-22T10:38:51.996Z,5176.00
2018-07-22T10:39:51.975Z,5248.00
2018-07-22T10:40:51.957Z,5240.00
2018-07-22T10:41:51.870Z,5368.00
2018-07-22T10:42:51.825Z,5436.00
2018-07-22T10:43:51.787Z,5440.00
2018-07-22T10:44:51.767Z,5456.00
2018-07-22T10:45:51.699Z,5532.00
2018-07-22T10:46:51.672Z,5704.00
2018-07-22T10:47:51.626Z,5696.00
2018-07-22T10:48:51.579Z,5704.00
2018-07-22T10:49:51.560Z,5808.00
2018-07-22T10:50:51.549Z,5880.00
2018-07-22T10:51:51.452Z,5916.00
2018-07-22T10:52:51.412Z,5692.00
2018-07-22T10:53:51.376Z,5624.00
2018-07-22T10:54:51.358Z,5476.00
2018-07-22T10:55:51.296Z,5320.00
2018-07-22T10:56:51.249Z,5156.00
2018-07-22T10:57:51.208Z,5104.00
2018-07-22T10:58:51.168Z,5196.00
2018-07-22T10:59:51.157Z,5292.00
2018-07-22T11:00:51.082Z,5320.00
2018-07-22T11:01:51.050Z,5196.00
2018-07-22T11:02:51.004Z,5128.00
2018-07-22T11:03:50.968Z,5040.00
2018-07-22T11:04:50.948Z,4944.00
2018-07-22T11:05:50.892Z,4580.00
2018-07-22T11:06:50.845Z,5020.00
2018-07-22T11:07:50.800Z,5036.00
2018-07-22T11:08:50.763Z,4984.00
2018-07-22T11:09:50.743Z,5012.00
2018-07-22T11:10:50.682Z,4980.00
2018-07-22T11:11:50.640Z,4852.00
2018-07-22T11:12:50.598Z,4860.00
2018-07-22T11:13:50.555Z,4884.00
2018-07-22T11:14:50.666Z,4804.00
2018-07-22T11:15:50.472Z,4836.00
2018-07-22T11:16:50.429Z,4948.00
2018-07-22T11:17:50.395Z,5080.00
2018-07-22T11:18:50.352Z,5176.00
2018-07-22T11:19:50.334Z,5248.00
2018-07-22T11:20:50.268Z,5028.00
2018-07-22T11:21:50.225Z,4828.00
2018-07-22T11:22:50.191Z,4548.00
2018-07-22T11:23:50.146Z,4424.00
2018-07-22T11:24:50.132Z,4336.00
2018-07-22T11:25:50.064Z,4444.00
2018-07-22T11:26:50.022Z,4544.00
2018-07-22T11:27:49.985Z,4604.00
2018-07-22T11:28:50.001Z,4760.00
2018-07-22T11:29:49.926Z,4792.00
2018-07-22T11:30:49.861Z,4904.00
2018-07-22T11:31:49.822Z,4980.00
2018-07-22T11:32:49.783Z,4984.00
2018-07-22T11:33:49.737Z,5008.00
2018-07-22T11:34:49.743Z,5028.00
2018-07-22T11:35:49.658Z,5244.00
2018-07-22T11:36:49.618Z,5468.00
2018-07-22T11:37:49.575Z,5032.00
2018-07-22T11:38:49.533Z,4488.00
2018-07-22T11:39:49.494Z,4016.00
2018-07-22T11:40:49.474Z,4032.00
2018-07-22T11:41:49.411Z,4124.00
2018-07-22T11:42:49.374Z,4368.00
2018-07-22T11:43:49.372Z,4496.00
2018-07-22T11:44:49.287Z,4272.00
2018-07-22T11:45:49.274Z,4424.00
2018-07-22T11:46:49.204Z,4424.00
2018-07-22T11:47:49.164Z,4624.00
2018-07-22T11:48:49.125Z,4604.00
2018-07-22T11:49:49.081Z,4576.00
2018-07-22T11:50:49.151Z,4556.00
2018-07-22T11:51:49.002Z,4508.00
2018-07-22T11:52:48.958Z,4424.00
2018-07-22T11:53:48.922Z,4308.00
2018-07-22T11:54:48.876Z,4376.00
2018-07-22T11:55:48.858Z,4440.00
2018-07-22T11:56:48.801Z,4704.00
2018-07-22T11:57:48.749Z,5164.00
2018-07-22T11:58:48.711Z,5824.00
2018-07-22T11:59:48.674Z,6656.00
2018-07-22T12:00:48.656Z,7548.00
2018-07-22T12:01:48.590Z,7920.00
2018-07-22T12:02:48.545Z,7808.00
2018-07-22T12:03:48.512Z,7272.00
2018-07-22T12:04:48.466Z,6840.00
2018-07-22T12:05:48.460Z,6676.00
2018-07-22T12:06:48.381Z,7100.00
2018-07-22T12:07:48.465Z,7256.00
2018-07-22T12:08:48.301Z,7132.00
2018-07-22T12:09:48.267Z,6780.00
2018-07-22T12:10:48.243Z,6620.00
2018-07-22T12:11:48.181Z,6244.00
2018-07-22T12:12:48.137Z,6488.00
2018-07-22T12:13:48.100Z,6624.00
2018-07-22T12:14:48.062Z,6496.00
2018-07-22T12:15:48.044Z,6420.00
2018-07-22T12:16:47.975Z,6276.00
2018-07-22T12:17:47.937Z,6180.00
2018-07-22T12:18:47.896Z,6004.00
2018-07-22T12:19:47.855Z,5844.00
2018-07-22T12:20:47.839Z,6084.00
2018-07-22T12:21:47.772Z,6212.00
2018-07-22T12:22:47.730Z,6528.00
2018-07-22T12:23:47.689Z,6900.00
2018-07-22T12:24:47.656Z,6680.00
2018-07-22T12:25:47.639Z,6652.00
2018-07-22T12:26:47.570Z,6224.00
2018-07-22T12:27:47.532Z,5084.00